This is the latest recevied weather packets stored in our database for station/object KG5MMT-12. If no packets are shown the sender has not sent any weather packets the latest 10 day(s).
| Time | Temp. | Humidity | Pressure | Rain* | Wind** | Luminosity | Snow |
|---|---|---|---|---|---|---|---|
| 1788444843 | 17.22° C | 59% | 0 hPa | 0 mm | - | - | - |
| 1788444543 | 16.67° C | 63% | 0 hPa | 0 mm | - | - | - |
| 1788444243 | 16.11° C | 67% | 0 hPa | 0 mm | - | - | - |
| 1788443943 | 15° C | 70% | 0 hPa | 0 mm | - | - | - |
| 1788443643 | 15° C | 72% | 0 hPa | 0 mm | - | - | - |
| 1788443343 | 14.44° C | 74% | 0 hPa | 0 mm | - | - | - |
| 1788443043 | 14.44° C | 75% | 0 hPa | 0 mm | - | - | - |
| 1788442744 | 13.89° C | 75% | 0 hPa | 0 mm | - | - | - |
| 1788442443 | 13.89° C | 76% | 0 hPa | 0 mm | - | - | - |
| 1788442143 | 13.33° C | 78% | 0 hPa | 0 mm | - | - | - |
| 1788441843 | 13.33° C | 78% | 0 hPa | 0 mm | - | - | - |
| 1788441543 | 13.33° C | 78% | 0 hPa | 0 mm | - | - | - |
| 1788441246 | 13.33° C | 78% | 0 hPa | 0 mm | - | - | - |
| 1788440943 | 12.78° C | 79% | 0 hPa | 0 mm | - | - | - |
| 1788440643 | 12.78° C | 79% | 0 hPa | 0 mm | - | - | - |
| 1788440343 | 12.78° C | 79% | 0 hPa | 0 mm | - | - | - |
| 1788440043 | 12.78° C | 80% | 0 hPa | 0 mm | - | - | - |
| 1788439743 | 12.78° C | 77% | 0 hPa | 0 mm | - | - | - |
| 1788439473 | 12.78° C | 77% | 0 hPa | 0 mm | - | - | - |
| 1788439143 | 12.78° C | 79% | 0 hPa | 0 mm | - | - | - |
| 1788438843 | 12.78° C | 78% | 0 hPa | 0 mm | - | - | - |
| 1788438543 | 12.78° C | 78% | 0 hPa | 0 mm | - | - | - |
| 1788438243 | 12.78° C | 78% | 0 hPa | 0 mm | - | - | - |
| 1788437945 | 12.78° C | 77% | 0 hPa | 0 mm | - | - | - |
| 1788437643 | 12.78° C | 78% | 0 hPa | 0 mm | - | - | - |
* Rain latest hour (hover to see other rain measurements)
** Current wind speed in m/s (hover to see current wind gust speed)